Imigrante, Brazil
Current Conditions -  °F | °C
As of 8:00 PM on Friday 31 Oct 2014 (Local Time) from SBCO Reporting Station
Broken Clouds Broken Clouds  
Wind Chill: 73°   Ceiling: 2500
Heat Index: 73°   Visibility: 6mi
Dew Point: 68°   Wind: 15mph
Humidity: 83%   Direction: 150°SSE
Pressure: 29.88"   Gusts: NA
Location:  29.36°S, 51.78°W
Report Text: SBCO 312200Z 15013KT 9999 BKN025 23/20 Q1012
Loading
Personal Weather Stations






























Interactive Weather Map
Tropical Storm Tracking
New forecast layout! Learn more

10-Day Weather Forecast

Advertisements
Track Severe Weather on mobile